Time;durP1;ratioP1;P1;durP2;ratioP2;P2;SDS_P1;SDS_P2;PMS_P1;PMS_P2;Temp;Humidity;BMP_temperature;BMP_pressure;BME280_temperature;BME280_humidity;BME280_pressure;Samples;Min_cycle;Max_cycle;Signal;HPM_P1;HPM_P2
2022/06/26 00:00:28;;;;;;;2.60;2.40;;;27.60;49.30;;;;;;6143848;23;20149;-84
2022/06/26 00:02:54;;;;;;;3.00;2.50;;;27.60;49.30;;;;;;6145351;23;20373;-84
2022/06/26 00:05:20;;;;;;;3.20;2.90;;;27.60;49.30;;;;;;6118904;23;20400;-83
2022/06/26 00:07:46;;;;;;;2.70;2.43;;;27.60;49.20;;;;;;6118497;23;20432;-84
2022/06/26 00:10:15;;;;;;;2.70;2.50;;;27.70;49.30;;;;;;6118705;23;20157;-83
2022/06/26 00:12:41;;;;;;;2.63;2.40;;;27.60;49.20;;;;;;6143737;23;20381;-84
2022/06/26 00:15:11;;;;;;;2.70;2.50;;;27.60;49.20;;;;;;6118489;23;20439;-84
2022/06/26 00:17:36;;;;;;;2.63;2.43;;;27.60;49.20;;;;;;6144592;23;20171;-85
2022/06/26 00:20:04;;;;;;;3.53;2.60;;;27.70;49.30;;;;;;6119559;23;20385;-83
2022/06/26 00:22:30;;;;;;;2.80;2.60;;;27.60;49.20;;;;;;6119263;23;20157;-83
2022/06/26 00:24:57;;;;;;;2.40;2.20;;;27.60;49.20;;;;;;6144245;23;20381;-83
2022/06/26 00:27:23;;;;;;;2.57;2.30;;;27.60;49.20;;;;;;6145316;23;20381;-82
2022/06/26 00:29:52;;;;;;;3.27;2.97;;;27.60;49.20;;;;;;6143286;23;20385;-82
2022/06/26 00:32:28;;;;;;;3.50;3.20;;;27.60;49.20;;;;;;6118565;23;20401;-83
2022/06/26 00:34:53;;;;;;;3.43;3.13;;;27.60;49.20;;;;;;6096999;23;20459;-82
2022/06/26 00:37:19;;;;;;;4.83;2.60;;;27.60;49.20;;;;;;6119056;23;20388;-82
2022/06/26 00:39:45;;;;;;;3.37;3.07;;;27.60;49.20;;;;;;6119035;23;20168;-82
2022/06/26 00:42:11;;;;;;;3.10;2.80;;;27.60;49.20;;;;;;6118226;23;20180;-83
2022/06/26 00:44:37;;;;;;;2.57;2.37;;;27.60;49.20;;;;;;6118230;23;20153;-83
2022/06/26 00:47:03;;;;;;;5.43;3.03;;;27.60;49.20;;;;;;6144657;23;20277;-83
2022/06/26 00:49:29;;;;;;;3.27;3.07;;;27.60;49.20;;;;;;6119038;23;20185;-83
2022/06/26 00:51:56;;;;;;;3.23;2.93;;;27.60;49.90;;;;;;6118955;23;20397;-83
2022/06/26 00:54:47;;;;;;;2.87;2.67;;;27.60;49.20;;;;;;6122415;23;20184;-83
2022/06/26 00:57:14;;;;;;;3.30;2.60;;;27.60;49.20;;;;;;6123690;23;20432;-84
2022/06/26 00:59:40;;;;;;;3.00;2.80;;;27.60;49.30;;;;;;6112454;23;20422;-83
2022/06/26 01:02:11;;;;;;;3.40;3.10;;;27.60;49.30;;;;;;6118123;23;20445;-83
2022/06/26 01:04:43;;;;;;;5.20;3.20;;;27.60;49.30;;;;;;6125719;23;20165;-83
2022/06/26 01:07:17;;;;;;;3.93;3.63;;;27.60;49.90;;;;;;6121387;23;20385;-83
2022/06/26 01:09:43;;;;;;;3.83;2.80;;;27.60;49.30;;;;;;6125961;23;20342;-83
2022/06/26 01:12:20;;;;;;;2.60;2.40;;;27.50;49.30;;;;;;6124893;23;20418;-84
2022/06/26 01:14:49;;;;;;;3.10;2.77;;;27.60;49.30;;;;;;6125497;23;20169;-83
2022/06/26 01:17:27;;;;;;;3.53;2.93;;;27.60;49.30;;;;;;6125297;23;20381;-83
2022/06/26 01:19:58;;;;;;;2.80;2.60;;;27.60;49.30;;;;;;6124779;23;20388;-83
2022/06/26 01:22:43;;;;;;;2.80;2.60;;;27.60;49.30;;;;;;6126151;23;20385;-83
2022/06/26 01:25:50;;;;;;;3.13;2.43;;;27.60;49.30;;;;;;6125645;23;20412;-83
2022/06/26 01:28:21;;;;;;;3.00;2.80;;;27.60;49.40;;;;;;6121186;23;20386;-83
2022/06/26 01:30:50;;;;;;;2.87;2.67;;;27.60;49.30;;;;;;6118854;23;20378;-85
2022/06/26 01:33:16;;;;;;;3.10;2.80;;;27.60;49.30;;;;;;6114351;23;20445;-85
2022/06/26 01:35:42;;;;;;;2.90;2.70;;;27.60;49.40;;;;;;6112287;23;20370;-84
2022/06/26 01:38:22;;;;;;;3.30;3.00;;;27.60;49.30;;;;;;6112843;23;20390;-84
2022/06/26 01:40:53;;;;;;;3.03;2.50;;;27.60;49.30;;;;;;6114083;23;20134;-84
2022/06/26 01:43:24;;;;;;;3.10;2.80;;;27.60;49.30;;;;;;6112594;23;20374;-85
2022/06/26 01:45:52;;;;;;;3.00;2.80;;;27.60;49.30;;;;;;6116825;23;20436;-86
2022/06/26 01:48:20;;;;;;;3.77;3.40;;;27.60;49.30;;;;;;6114638;23;20402;-86
2022/06/26 01:50:47;;;;;;;3.50;3.00;;;27.60;49.30;;;;;;6090283;23;20390;-86
2022/06/26 01:53:15;;;;;;;3.03;2.83;;;27.60;49.30;;;;;;6115866;23;20385;-86
2022/06/26 01:55:41;;;;;;;2.83;2.53;;;27.60;49.40;;;;;;6117359;23;20390;-86
2022/06/26 01:58:07;;;;;;;3.30;2.90;;;27.60;49.30;;;;;;6119537;23;20401;-86
2022/06/26 02:00:36;;;;;;;3.57;3.27;;;27.50;49.30;;;;;;6120305;23;20439;-85
2022/06/26 02:03:02;;;;;;;3.00;2.80;;;27.60;49.30;;;;;;6144412;23;20365;-86
2022/06/26 02:05:28;;;;;;;3.20;2.90;;;27.60;49.30;;;;;;6144571;23;20408;-85
2022/06/26 02:07:54;;;;;;;2.80;2.60;;;27.50;49.30;;;;;;6118490;23;20385;-86
2022/06/26 02:15:55;;;;;;;2.83;2.60;;;27.50;49.30;;;;;;6145411;23;20429;-85
2022/06/26 02:18:21;;;;;;;4.93;2.63;;;27.50;49.30;;;;;;6119631;23;20408;-86
2022/06/26 02:20:48;;;;;;;3.00;2.67;;;27.50;49.30;;;;;;6146206;23;20369;-86
2022/06/26 02:23:20;;;;;;;2.97;2.70;;;27.50;49.30;;;;;;6146383;23;20365;-83
2022/06/26 02:25:47;;;;;;;2.73;2.53;;;27.50;49.30;;;;;;6146743;23;20431;-86
2022/06/26 02:28:16;;;;;;;3.30;3.00;;;27.50;49.30;;;;;;6118981;23;20384;-86
2022/06/26 02:30:44;;;;;;;3.17;2.87;;;27.50;49.30;;;;;;6119155;23;20381;-86
2022/06/26 02:33:10;;;;;;;3.17;2.70;;;27.50;49.30;;;;;;6144590;23;20396;-85
2022/06/26 02:35:36;;;;;;;2.73;2.53;;;27.50;49.30;;;;;;6118860;23;20396;-86
2022/06/26 02:38:03;;;;;;;3.27;3.07;;;27.50;49.30;;;;;;6119410;23;20381;-84
2022/06/26 02:40:30;;;;;;;3.03;2.60;;;27.50;49.30;;;;;;6117419;23;20385;-84
2022/06/26 02:42:56;;;;;;;3.20;2.70;;;27.50;49.20;;;;;;6142794;23;20367;-84
2022/06/26 02:45:23;;;;;;;3.03;2.83;;;27.50;49.20;;;;;;6142578;23;20377;-83
2022/06/26 02:47:49;;;;;;;2.77;2.30;;;27.50;49.20;;;;;;6144215;23;20457;-84
2022/06/26 02:50:16;;;;;;;2.93;2.73;;;27.50;49.20;;;;;;6142838;23;20441;-84
2022/06/26 02:52:42;;;;;;;2.97;2.70;;;27.50;49.20;;;;;;6116632;23;20416;-84
2022/06/26 02:55:09;;;;;;;2.93;2.30;;;27.50;49.20;;;;;;6116839;23;20456;-84
2022/06/26 02:57:35;;;;;;;3.27;3.03;;;27.50;49.20;;;;;;6111835;23;20412;-84
2022/06/26 03:00:01;;;;;;;4.00;3.60;;;27.50;49.20;;;;;;6111807;23;20376;-83
2022/06/26 03:02:27;;;;;;;3.43;2.90;;;27.50;49.20;;;;;;6112193;23;20417;-83
2022/06/26 03:04:53;;;;;;;2.70;2.50;;;27.50;49.20;;;;;;6111931;23;20181;-84
2022/06/26 03:07:20;;;;;;;2.47;2.27;;;27.50;49.20;;;;;;6113327;23;20205;-83
2022/06/26 03:09:46;;;;;;;3.40;2.77;;;27.50;49.30;;;;;;6112748;23;20704;-83
2022/06/26 03:12:13;;;;;;;2.83;2.63;;;27.40;49.20;;;;;;6112396;23;20390;-83
2022/06/26 03:14:41;;;;;;;2.80;2.60;;;27.40;49.20;;;;;;6111529;23;20504;-83
2022/06/26 03:17:09;;;;;;;3.13;2.47;;;27.40;49.20;;;;;;6113562;23;20366;-83
2022/06/26 03:19:35;;;;;;;2.40;2.20;;;27.40;49.20;;;;;;6112094;23;20392;-83
2022/06/26 03:22:01;;;;;;;4.67;2.33;;;27.40;49.20;;;;;;6112065;23;20386;-83
2022/06/26 03:24:27;;;;;;;2.50;2.30;;;27.40;49.20;;;;;;6112138;23;20177;-83
2022/06/26 03:26:53;;;;;;;2.97;2.77;;;27.40;49.20;;;;;;6111731;23;20165;-83
2022/06/26 03:29:19;;;;;;;2.77;2.47;;;27.40;49.20;;;;;;6113387;23;20237;-83
2022/06/26 03:31:45;;;;;;;2.77;2.57;;;27.40;49.20;;;;;;6112754;23;20386;-83
2022/06/26 03:34:11;;;;;;;3.07;2.83;;;27.40;49.20;;;;;;6113362;23;20181;-83
2022/06/26 03:36:38;;;;;;;2.80;2.60;;;27.40;49.20;;;;;;6112006;23;20161;-83
2022/06/26 03:39:05;;;;;;;3.10;2.80;;;27.40;49.10;;;;;;6112873;23;20431;-84
2022/06/26 03:41:31;;;;;;;2.77;2.57;;;27.40;49.10;;;;;;6111977;23;20377;-84
2022/06/26 03:43:57;;;;;;;2.80;2.60;;;27.40;49.10;;;;;;6111967;23;20373;-84
2022/06/26 03:46:22;;;;;;;2.60;2.40;;;27.40;49.10;;;;;;6112444;23;20382;-85
2022/06/26 03:48:49;;;;;;;2.83;2.63;;;27.40;49.10;;;;;;6113234;23;20181;-85
2022/06/26 03:51:15;;;;;;;2.53;2.33;;;27.40;49.70;;;;;;6114463;23;20165;-85
2022/06/26 03:53:41;;;;;;;3.10;2.80;;;27.40;49.10;;;;;;6115865;23;20477;-85
2022/06/26 03:56:07;;;;;;;2.83;2.63;;;27.40;49.20;;;;;;6122072;23;20596;-85
2022/06/26 03:58:34;;;;;;;2.77;2.57;;;27.40;49.20;;;;;;6119397;23;20388;-85
2022/06/26 04:01:01;;;;;;;3.90;2.63;;;27.40;49.20;;;;;;6117420;23;20185;-83
2022/06/26 04:03:27;;;;;;;2.57;2.37;;;27.40;49.20;;;;;;6116903;23;20475;-83
2022/06/26 04:05:53;;;;;;;3.27;2.97;;;27.40;49.20;;;;;;6116616;23;20385;-83
2022/06/26 04:08:20;;;;;;;2.90;2.70;;;27.40;49.20;;;;;;6119134;23;20380;-83
2022/06/26 04:10:49;;;;;;;3.43;3.13;;;27.40;49.20;;;;;;6125750;23;20137;-82
2022/06/26 04:13:23;;;;;;;2.60;2.40;;;27.40;49.30;;;;;;6129791;23;20849;-83
2022/06/26 04:16:04;;;;;;;2.90;2.60;;;27.40;49.30;;;;;;6130338;23;20346;-83
2022/06/26 04:18:31;;;;;;;3.57;3.23;;;27.40;49.30;;;;;;6154740;23;20400;-83
2022/06/26 04:20:57;;;;;;;2.63;2.43;;;27.40;49.40;;;;;;6119225;23;20381;-84
2022/06/26 04:23:23;;;;;;;3.10;2.80;;;27.50;49.40;;;;;;6143476;23;20384;-84
2022/06/26 04:25:48;;;;;;;3.00;2.70;;;27.40;49.40;;;;;;6118146;23;20157;-84
2022/06/26 04:28:15;;;;;;;3.77;3.20;;;27.50;49.40;;;;;;6118174;23;20157;-83
2022/06/26 04:30:40;;;;;;;3.17;2.90;;;27.50;49.40;;;;;;6143066;23;20491;-84
2022/06/26 04:33:09;;;;;;;2.80;2.60;;;27.50;49.40;;;;;;6127980;23;20385;-83
2022/06/26 04:35:36;;;;;;;3.10;2.80;;;27.50;49.40;;;;;;6128878;23;20169;-82
2022/06/26 04:38:11;;;;;;;2.60;2.40;;;27.50;49.40;;;;;;6153440;23;20393;-83
2022/06/26 04:40:37;;;;;;;3.30;2.17;;;27.50;49.40;;;;;;6127386;23;20388;-83
2022/06/26 04:43:03;;;;;;;2.63;2.43;;;27.50;49.40;;;;;;6154513;23;20341;-83
2022/06/26 04:45:30;;;;;;;2.77;2.57;;;27.50;49.30;;;;;;6127963;23;20168;-83
2022/06/26 04:47:59;;;;;;;2.50;2.30;;;27.60;49.30;;;;;;6148472;23;20448;-83
2022/06/26 04:50:27;;;;;;;2.70;2.50;;;27.60;49.30;;;;;;6153634;23;20385;-83
2022/06/26 04:52:56;;;;;;;2.40;2.20;;;27.60;49.30;;;;;;6154024;23;20430;-84
2022/06/26 04:55:43;;;;;;;2.97;2.53;;;27.60;49.30;;;;;;6154018;23;20503;-82
2022/06/26 04:58:14;;;;;;;2.73;2.53;;;27.60;49.30;;;;;;6153149;23;20416;-83
2022/06/26 05:00:40;;;;;;;2.90;2.70;;;27.60;49.30;;;;;;6154830;23;20368;-83
2022/06/26 05:03:10;;;;;;;2.70;2.50;;;27.60;49.30;;;;;;6128825;23;20393;-83
2022/06/26 05:05:44;;;;;;;5.47;2.67;;;27.60;49.30;;;;;;6128948;23;20365;-83
2022/06/26 05:08:12;;;;;;;2.80;2.60;;;27.60;49.30;;;;;;6151687;23;20369;-83
2022/06/26 05:10:43;;;;;;;2.30;2.10;;;27.60;49.30;;;;;;6112919;23;20404;-84
2022/06/26 05:13:10;;;;;;;2.80;2.60;;;27.60;49.20;;;;;;6129028;23;20387;-83
2022/06/26 05:15:43;;;;;;;2.87;2.67;;;27.60;49.30;;;;;;6129130;23;20451;-83
2022/06/26 05:18:24;;;;;;;3.07;2.80;;;27.60;49.30;;;;;;6128904;23;20381;-83
2022/06/26 05:21:05;;;;;;;2.20;2.00;;;27.60;49.30;;;;;;6154593;23;20373;-83
2022/06/26 05:23:35;;;;;;;2.77;2.57;;;27.60;49.40;;;;;;6152701;23;20373;-83
2022/06/26 05:26:06;;;;;;;2.80;2.60;;;27.60;49.30;;;;;;6124876;23;20429;-83
2022/06/26 05:28:34;;;;;;;3.50;3.20;;;27.60;49.30;;;;;;6151792;23;20354;-84
2022/06/26 05:31:08;;;;;;;3.10;2.77;;;27.60;49.30;;;;;;6127201;23;20396;-84
2022/06/26 05:33:46;;;;;;;2.50;2.30;;;27.60;49.30;;;;;;6105489;23;20373;-83
2022/06/26 05:36:19;;;;;;;2.70;2.50;;;27.70;49.40;;;;;;6152423;23;20469;-83
2022/06/26 05:38:48;;;;;;;2.77;2.50;;;27.70;49.40;;;;;;6127440;23;20357;-84
2022/06/26 05:41:14;;;;;;;3.27;2.97;;;27.70;49.40;;;;;;6127213;23;20408;-83
2022/06/26 05:43:42;;;;;;;2.70;2.50;;;27.70;49.40;;;;;;6127217;23;20399;-83
2022/06/26 05:46:09;;;;;;;3.00;2.80;;;27.70;49.30;;;;;;6125086;23;20379;-86
2022/06/26 05:48:35;;;;;;;2.43;2.23;;;27.70;49.30;;;;;;6119439;23;20373;-86
2022/06/26 05:51:01;;;;;;;3.17;2.73;;;27.70;49.30;;;;;;6119553;23;20185;-85
2022/06/26 05:53:30;;;;;;;2.23;2.03;;;27.70;49.30;;;;;;6145876;23;20165;-85
2022/06/26 05:55:56;;;;;;;2.67;2.47;;;27.70;49.30;;;;;;6120170;23;20440;-85
2022/06/26 05:58:26;;;;;;;2.67;2.47;;;27.70;49.30;;;;;;6115166;23;20409;-85
2022/06/26 06:00:58;;;;;;;2.60;2.40;;;27.70;49.30;;;;;;6115457;23;20213;-85
2022/06/26 06:03:24;;;;;;;2.67;2.47;;;27.70;49.30;;;;;;6115446;23;20393;-85
2022/06/26 06:05:54;;;;;;;2.50;2.30;;;27.70;49.30;;;;;;6116388;23;20570;-85
2022/06/26 06:08:23;;;;;;;3.23;2.47;;;27.70;49.30;;;;;;6116293;23;20378;-86
2022/06/26 06:10:50;;;;;;;2.57;2.37;;;27.70;49.30;;;;;;6115557;23;20484;-85
2022/06/26 06:13:19;;;;;;;2.90;2.57;;;27.70;49.30;;;;;;6116269;23;20374;-86
2022/06/26 06:15:45;;;;;;;3.00;2.80;;;27.70;49.30;;;;;;6115198;23;20448;-86
2022/06/26 06:18:18;;;;;;;2.70;2.50;;;27.70;49.30;;;;;;6116375;23;20445;-86
2022/06/26 06:20:45;;;;;;;2.50;2.30;;;27.70;49.30;;;;;;6115433;23;20660;-86
2022/06/26 06:23:11;;;;;;;2.53;2.33;;;27.70;49.30;;;;;;6115296;23;20397;-86
2022/06/26 06:25:37;;;;;;;3.00;2.70;;;27.70;49.30;;;;;;6116593;23;20374;-86
2022/06/26 06:28:03;;;;;;;2.53;2.20;;;27.70;49.30;;;;;;6114824;23;20390;-86
2022/06/26 06:30:29;;;;;;;2.60;2.40;;;27.80;49.30;;;;;;6114650;23;20449;-86
2022/06/26 06:32:55;;;;;;;2.97;2.63;;;27.80;49.30;;;;;;6115530;23;20393;-86
2022/06/26 06:35:22;;;;;;;2.57;2.37;;;27.80;49.30;;;;;;6114867;23;20481;-86
2022/06/26 06:38:21;;;;;;;2.37;2.17;;;27.80;49.30;;;;;;6115045;23;20150;-84
2022/06/26 06:48:34;;;;;;;;;;;;;;;;;;;;;
2022/06/26 06:54:23;;;;;;;2.30;2.10;;;27.70;49.40;;;;;;5971270;23;20441;-85
2022/06/26 06:56:49;;;;;;;2.27;2.07;;;27.70;49.40;;;;;;5972506;24;20426;-85
2022/06/26 06:59:24;;;;;;;2.70;2.50;;;27.70;49.40;;;;;;5971125;24;20394;-85
2022/06/26 07:01:58;;;;;;;2.43;2.23;;;27.70;49.50;;;;;;5948745;24;20386;-85
2022/06/26 07:04:30;;;;;;;2.60;2.40;;;27.70;49.50;;;;;;5972478;24;20389;-86
2022/06/26 07:06:58;;;;;;;2.83;2.23;;;27.70;49.40;;;;;;5950030;24;20409;-85
2022/06/26 07:09:27;;;;;;;2.43;2.23;;;27.70;49.40;;;;;;5972464;24;20438;-85
2022/06/26 07:12:00;;;;;;;2.43;2.23;;;27.70;49.40;;;;;;5949777;24;20453;-85
2022/06/26 07:14:26;;;;;;;2.70;2.20;;;27.70;49.40;;;;;;6021055;23;20438;-84
2022/06/26 07:16:57;;;;;;;2.50;2.10;;;27.70;49.30;;;;;;6084820;23;20381;-85
2022/06/26 07:19:26;;;;;;;1.83;1.73;;;27.70;49.30;;;;;;6060341;23;20430;-85
2022/06/26 07:25:16;;;;;;;2.40;2.20;;;27.80;49.40;;;;;;6056485;23;20370;-85
2022/06/26 07:27:45;;;;;;;2.30;2.10;;;27.70;49.30;;;;;;6032342;23;20949;-86
2022/06/26 07:30:16;;;;;;;2.60;2.40;;;27.70;49.40;;;;;;6031958;23;20467;-86
2022/06/26 07:32:46;;;;;;;2.07;1.87;;;27.70;49.30;;;;;;6056856;23;20368;-85
2022/06/26 07:35:14;;;;;;;2.27;2.10;;;27.70;49.40;;;;;;6009382;23;20514;-85
2022/06/26 07:37:52;;;;;;;2.37;2.17;;;27.70;49.30;;;;;;6057580;23;20445;-85
2022/06/26 07:40:18;;;;;;;2.13;1.90;;;27.70;49.30;;;;;;6034033;23;20403;-85
2022/06/26 07:42:44;;;;;;;2.30;2.10;;;27.70;49.30;;;;;;6034923;23;20909;-85
2022/06/26 07:45:10;;;;;;;2.27;1.83;;;27.70;49.30;;;;;;6059585;23;20394;-85
2022/06/26 07:47:45;;;;;;;2.50;2.30;;;27.70;49.30;;;;;;6034521;23;20383;-84
2022/06/26 07:50:11;;;;;;;2.40;1.90;;;27.70;49.30;;;;;;6034372;23;20387;-85
2022/06/26 07:52:48;;;;;;;2.33;1.90;;;27.70;49.30;;;;;;6089869;23;20417;-86
2022/06/26 08:20:31;;;;;;;1.87;1.70;;;27.70;49.60;;;;;;5927313;24;20389;-86
2022/06/26 08:23:08;;;;;;;2.20;2.00;;;27.60;49.60;;;;;;5943904;24;20399;-86
2022/06/26 10:46:19;;;;;;;1.30;1.20;;;27.70;48.20;;;;;;6140960;23;20475;-83
2022/06/26 11:06:29;;;;;;;2.10;1.47;;;27.70;48.00;;;;;;5968142;24;20527;-82
2022/06/26 11:12:45;;;;;;;2.20;1.50;;;27.70;47.90;;;;;;5859418;24;20401;-82
2022/06/26 11:15:32;;;;;;;2.20;1.40;;;27.70;48.10;;;;;;5838614;24;20436;-83
2022/06/26 11:18:05;;;;;;;1.70;1.60;;;27.70;48.00;;;;;;5862286;24;20362;-82
2022/06/26 11:20:53;;;;;;;1.77;1.30;;;27.70;48.10;;;;;;5880856;24;20419;-83
2022/06/26 11:30:48;;;;;;;1.50;1.40;;;27.70;48.00;;;;;;5943348;24;20563;-83
2022/06/26 11:33:23;;;;;;;1.50;1.40;;;27.70;48.10;;;;;;5920650;24;20391;-83
2022/06/26 11:43:07;;;;;;;2.07;1.63;;;27.70;48.00;;;;;;5888426;24;20369;-84
2022/06/26 11:46:22;;;;;;;1.47;1.30;;;27.70;47.90;;;;;;5864915;24;20384;-84
2022/06/26 12:34:53;;;;;;;2.10;1.90;;;27.70;47.70;;;;;;5705142;25;20536;-82
2022/06/26 12:37:22;;;;;;;1.73;1.63;;;27.80;47.60;;;;;;5680300;25;20445;-83
2022/06/26 12:43:45;;;;;;;1.40;1.30;;;27.80;47.40;;;;;;5765925;24;20450;-82
2022/06/26 12:46:19;;;;;;;1.70;1.50;;;27.80;47.50;;;;;;5779719;24;20385;-82
2022/06/26 12:48:50;;;;;;;1.43;1.33;;;27.80;47.60;;;;;;5824304;24;20391;-82
2022/06/26 12:51:51;;;;;;;;;;;;;;;;;;;;;
2022/06/26 13:37:26;;;;;;;1.60;1.20;;;27.90;47.70;;;;;;6135598;23;20471;-83
2022/06/26 13:43:19;;;;;;;1.80;1.70;;;27.90;47.80;;;;;;6148041;23;20467;-85
2022/06/26 13:56:23;;;;;;;1.67;1.57;;;27.90;47.90;;;;;;6058107;23;20442;-84
2022/06/26 13:59:38;;;;;;;;;;;;;;;;;;;;;
2022/06/26 14:08:45;;;;;;;1.83;1.40;;;27.90;47.80;;;;;;6024882;23;20368;-82
2022/06/26 14:11:57;;;;;;;2.07;1.80;;;27.90;47.90;;;;;;6024890;23;20361;-82
2022/06/26 14:14:35;;;;;;;;;;;;;;;;;;;;;
2022/06/26 14:18:17;;;;;;;1.70;1.60;;;27.90;47.80;;;;;;5916509;24;20376;-81
2022/06/26 14:20:31;;;;;;;1.50;1.40;;;27.90;47.70;;;;;;5955329;24;20401;-82
2022/06/26 14:27:17;;;;;;;;;;;;;;;;;;;;;
2022/06/26 14:30:17;;;;;;;3.47;1.60;;;27.90;47.60;;;;;;5919401;24;20371;-81
2022/06/26 14:33:00;;;;;;;1.80;1.67;;;27.90;47.60;;;;;;5894232;24;20392;-81
2022/06/26 14:35:49;;;;;;;1.87;1.50;;;27.90;47.50;;;;;;5893861;24;20499;-81
2022/06/26 14:45:24;;;;;;;1.93;1.53;;;27.90;47.30;;;;;;5973702;23;20387;-82
2022/06/26 14:48:02;;;;;;;;;;;;;;;;;;;;;
2022/06/26 15:00:48;;;;;;;1.40;1.30;;;27.90;47.40;;;;;;5920261;24;20379;-82
2022/06/26 15:03:23;;;;;;;4.13;1.90;;;27.80;47.40;;;;;;5915714;24;20380;-82
2022/06/26 15:09:47;;;;;;;1.60;1.50;;;27.90;47.40;;;;;;5809759;24;20395;-84
2022/06/26 15:12:57;;;;;;;1.57;1.47;;;27.90;47.20;;;;;;5840850;24;20417;-84
2022/06/26 15:25:56;;;;;;;1.70;1.60;;;27.90;47.00;;;;;;5877220;24;20434;-84
2022/06/26 15:35:38;;;;;;;2.10;1.90;;;27.90;46.80;;;;;;5887944;24;20530;-84
2022/06/26 15:38:03;;;;;;;1.50;1.40;;;27.90;47.00;;;;;;5885144;24;20972;-84
2022/06/26 15:40:52;;;;;;;1.60;1.50;;;27.90;47.00;;;;;;6022581;23;20375;-85
2022/06/26 16:04:20;;;;;;;;;;;;;;;;;;;;;
2022/06/26 16:40:39;;;;;;;1.80;1.70;;;27.90;46.70;;;;;;5835435;24;20440;-85
2022/06/26 16:50:12;;;;;;;2.00;1.53;;;27.90;46.80;;;;;;5808052;24;20398;-85
2022/06/26 17:07:20;;;;;;;;;;;;;;;;;;;;;
2022/06/26 18:21:14;;;;;;;1.90;1.80;;;27.90;47.50;;;;;;5805029;24;20367;-80
2022/06/26 18:23:57;;;;;;;2.33;2.00;;;27.90;47.50;;;;;;5804032;24;20392;-81
2022/06/26 18:26:23;;;;;;;2.07;1.73;;;27.90;47.50;;;;;;5819152;24;20393;-81
2022/06/26 18:28:49;;;;;;;2.10;1.90;;;28.00;47.60;;;;;;5859965;24;20386;-81
2022/06/26 18:31:15;;;;;;;2.70;2.17;;;28.00;47.70;;;;;;5845712;24;20492;-80
2022/06/26 18:33:42;;;;;;;1.83;1.73;;;28.00;47.60;;;;;;5878052;24;20169;-80
2022/06/26 18:36:10;;;;;;;2.57;2.10;;;28.00;47.60;;;;;;5943585;24;20158;-81
2022/06/26 18:38:40;;;;;;;1.90;1.80;;;28.00;47.60;;;;;;5939079;24;20398;-81
2022/06/26 18:41:06;;;;;;;2.77;1.90;;;28.00;47.70;;;;;;5962613;24;20412;-81
2022/06/26 18:43:32;;;;;;;3.97;1.80;;;28.00;47.70;;;;;;5996317;23;20393;-81
2022/06/26 18:46:00;;;;;;;2.33;2.13;;;28.10;47.70;;;;;;5996535;24;20164;-80
2022/06/26 18:48:29;;;;;;;2.30;2.10;;;28.10;47.80;;;;;;5995627;23;20168;-80
2022/06/26 18:50:55;;;;;;;2.30;1.73;;;28.10;47.80;;;;;;5996094;24;20468;-80
2022/06/26 18:53:22;;;;;;;2.53;2.33;;;28.10;47.70;;;;;;6049645;23;20400;-79
2022/06/26 18:55:48;;;;;;;2.83;2.27;;;28.10;47.70;;;;;;6119240;23;20435;-80
2022/06/26 18:58:16;;;;;;;2.37;1.80;;;28.10;47.80;;;;;;6117675;23;20393;-80
2022/06/26 19:00:42;;;;;;;2.20;1.93;;;28.10;47.70;;;;;;6119456;23;20217;-81
2022/06/26 19:03:09;;;;;;;2.80;2.07;;;28.10;47.70;;;;;;6118608;23;20389;-81
2022/06/26 19:05:35;;;;;;;1.70;1.60;;;28.10;47.70;;;;;;6118040;23;20381;-80
2022/06/26 19:08:00;;;;;;;2.03;1.93;;;28.10;47.70;;;;;;6118423;23;20164;-81
2022/06/26 19:10:26;;;;;;;2.20;2.00;;;28.10;47.70;;;;;;6116723;23;20161;-80
2022/06/26 19:15:39;;;;;;;4.03;1.97;;;28.10;47.70;;;;;;6142857;23;20412;-81
2022/06/26 19:18:06;;;;;;;2.37;2.03;;;28.10;47.80;;;;;;6141958;23;20377;-80
2022/06/26 19:20:49;;;;;;;1.90;1.80;;;28.10;47.80;;;;;;6120764;23;20381;-80
2022/06/26 19:23:55;;;;;;;2.57;2.07;;;28.10;47.80;;;;;;6122243;23;20383;-80
2022/06/26 19:26:46;;;;;;;2.23;2.03;;;28.10;47.90;;;;;;6123069;23;20448;-81
2022/06/26 19:33:04;;;;;;;2.07;1.80;;;28.10;47.90;;;;;;6148598;23;20348;-83
2022/06/26 19:36:02;;;;;;;3.00;2.00;;;28.00;47.90;;;;;;6148431;23;20708;-83
2022/06/26 19:44:48;;;;;;;2.90;2.13;;;28.10;48.10;;;;;;6059845;23;20366;-82
2022/06/26 19:47:43;;;;;;;2.37;2.00;;;28.10;48.10;;;;;;6036855;23;20371;-82
2022/06/26 19:52:58;;;;;;;3.00;2.00;;;28.10;48.10;;;;;;6059492;23;20363;-81
2022/06/26 19:58:38;;;;;;;2.20;2.00;;;28.10;48.20;;;;;;6040559;23;20387;-82
2022/06/26 20:01:07;;;;;;;2.93;2.20;;;28.10;48.20;;;;;;6034167;23;20384;-82
2022/06/26 20:06:18;;;;;;;2.07;1.87;;;28.10;48.20;;;;;;6053743;23;20471;-80
2022/06/26 20:08:45;;;;;;;3.07;2.30;;;28.10;48.20;;;;;;6055223;23;20407;-80
2022/06/26 20:11:12;;;;;;;2.10;1.90;;;28.10;48.20;;;;;;6054668;23;20384;-80
2022/06/26 20:13:38;;;;;;;2.63;2.10;;;28.10;48.20;;;;;;6054286;23;20888;-82
2022/06/26 20:16:04;;;;;;;2.43;2.23;;;28.10;48.20;;;;;;6074779;23;20452;-82
2022/06/26 20:18:31;;;;;;;4.00;2.10;;;28.10;48.20;;;;;;6112141;23;20837;-82
2022/06/26 20:21:07;;;;;;;2.27;2.07;;;28.10;48.20;;;;;;6086786;23;20390;-82
2022/06/26 20:23:33;;;;;;;2.40;2.13;;;28.10;48.20;;;;;;6113828;23;20365;-84
2022/06/26 20:26:31;;;;;;;1.90;1.80;;;28.10;48.20;;;;;;6089415;23;20723;-84
2022/06/26 20:28:57;;;;;;;2.43;2.23;;;28.10;48.20;;;;;;6089264;23;20436;-84
2022/06/26 20:31:23;;;;;;;2.17;1.97;;;28.10;48.20;;;;;;6089002;23;20409;-84
2022/06/26 20:33:49;;;;;;;2.40;2.00;;;28.10;48.20;;;;;;6088752;23;20409;-84
2022/06/26 20:36:17;;;;;;;1.77;1.63;;;28.10;48.30;;;;;;6089447;23;20165;-82
2022/06/26 20:38:43;;;;;;;2.10;1.90;;;28.10;48.30;;;;;;6114159;23;20437;-82
2022/06/26 20:41:09;;;;;;;2.87;1.97;;;28.10;48.30;;;;;;6101302;23;20435;-82
2022/06/26 20:43:36;;;;;;;2.73;2.20;;;28.10;48.30;;;;;;6117449;23;20389;-82
2022/06/26 20:46:08;;;;;;;2.20;1.97;;;28.10;48.30;;;;;;6118040;23;20157;-82
2022/06/26 20:48:35;;;;;;;2.20;2.00;;;28.10;48.30;;;;;;6144417;23;20373;-83
2022/06/26 20:51:02;;;;;;;2.30;2.10;;;28.10;48.30;;;;;;6117877;23;20408;-83
2022/06/26 20:53:29;;;;;;;2.20;2.00;;;28.10;48.40;;;;;;6118266;23;20412;-83
2022/06/26 20:55:55;;;;;;;1.93;1.83;;;28.10;48.40;;;;;;6117812;23;20428;-83
2022/06/26 20:58:21;;;;;;;2.33;2.13;;;28.10;48.40;;;;;;6118267;23;20448;-83
2022/06/26 21:00:48;;;;;;;1.87;1.77;;;28.10;48.40;;;;;;6120963;23;20408;-84
2022/06/26 21:03:13;;;;;;;2.57;2.37;;;28.10;48.50;;;;;;6095918;23;20389;-84
2022/06/26 21:05:40;;;;;;;1.70;1.60;;;28.10;48.40;;;;;;6120534;23;20390;-84
2022/06/26 21:08:11;;;;;;;2.60;1.97;;;28.10;48.50;;;;;;6145779;23;20148;-84
2022/06/26 21:10:38;;;;;;;4.30;2.03;;;28.10;48.40;;;;;;6119560;23;20444;-84
2022/06/26 21:13:06;;;;;;;2.33;2.13;;;28.10;48.50;;;;;;6120265;23;20391;-84
2022/06/26 21:15:35;;;;;;;2.37;2.00;;;28.10;48.50;;;;;;6145401;23;20416;-84
2022/06/26 21:18:02;;;;;;;2.37;2.17;;;28.10;48.50;;;;;;6120065;23;20857;-84
2022/06/26 21:20:33;;;;;;;2.43;2.23;;;28.10;48.50;;;;;;6145792;23;20376;-84
2022/06/26 21:22:59;;;;;;;2.30;2.07;;;28.10;48.50;;;;;;6120199;23;20390;-84
2022/06/26 21:25:25;;;;;;;2.37;2.17;;;28.10;48.60;;;;;;6120353;23;20389;-84
2022/06/26 21:27:55;;;;;;;2.70;2.50;;;28.10;48.60;;;;;;6120133;23;20420;-84
2022/06/26 21:30:21;;;;;;;2.73;2.10;;;28.10;48.60;;;;;;6119919;23;20389;-84
2022/06/26 21:32:48;;;;;;;2.10;1.90;;;28.10;48.60;;;;;;6120019;23;20856;-84
2022/06/26 21:35:17;;;;;;;2.40;2.20;;;28.10;48.70;;;;;;6120107;23;20431;-84
2022/06/26 21:37:46;;;;;;;2.20;2.10;;;28.10;48.70;;;;;;6145891;23;20844;-84
2022/06/26 21:40:13;;;;;;;2.13;1.70;;;28.10;48.70;;;;;;6118931;23;20385;-83
2022/06/26 21:42:39;;;;;;;2.00;1.77;;;28.10;48.70;;;;;;6144400;23;20684;-83
2022/06/26 21:45:05;;;;;;;1.97;1.83;;;28.10;48.60;;;;;;6119629;23;20389;-83
2022/06/26 21:47:32;;;;;;;2.00;1.90;;;28.10;48.60;;;;;;6119051;23;20392;-84
2022/06/26 21:50:08;;;;;;;1.93;1.83;;;28.10;48.60;;;;;;6118408;23;20475;-84
2022/06/26 21:52:43;;;;;;;2.40;2.00;;;28.10;48.60;;;;;;6120267;23;20412;-84
2022/06/26 21:55:12;;;;;;;3.17;2.07;;;28.10;48.60;;;;;;6144356;23;20412;-84
2022/06/26 21:57:38;;;;;;;2.40;2.20;;;28.10;48.70;;;;;;6118586;23;20393;-84
2022/06/26 22:00:11;;;;;;;2.90;2.43;;;28.10;48.70;;;;;;6144169;23;20412;-84
2022/06/26 22:02:39;;;;;;;2.50;2.23;;;28.10;48.70;;;;;;6144028;23;20808;-83
2022/06/26 22:05:13;;;;;;;2.57;2.37;;;28.10;48.70;;;;;;6118215;23;20389;-83
2022/06/26 22:07:58;;;;;;;;;;;;;;;;;;;;;
2022/06/26 22:10:37;;;;;;;3.30;1.90;;;28.10;48.70;;;;;;6120963;23;20404;-84
2022/06/26 22:13:05;;;;;;;2.30;2.10;;;28.10;48.70;;;;;;6118431;23;20381;-84
2022/06/26 22:15:39;;;;;;;2.30;2.10;;;28.10;48.70;;;;;;6118045;23;20507;-84
2022/06/26 22:18:06;;;;;;;2.53;2.27;;;28.10;48.80;;;;;;6117692;23;20409;-84
2022/06/26 22:20:34;;;;;;;2.20;2.00;;;28.10;48.80;;;;;;6119211;23;20397;-84
2022/06/26 22:23:00;;;;;;;2.00;1.90;;;28.10;48.80;;;;;;6145225;23;20403;-84